createdAt,value
2022-10-13T00:00:09.625Z,99075.25
2022-10-13T00:02:36.284Z,99069.75
2022-10-13T00:05:02.866Z,99076.47
2022-10-13T00:07:29.479Z,99074.25
2022-10-13T00:09:56.075Z,99067.16
2022-10-13T00:12:22.708Z,99069.56
2022-10-13T00:14:49.343Z,99056.88
2022-10-13T00:17:15.966Z,99058.44
2022-10-13T00:19:42.656Z,99057.69
2022-10-13T00:22:09.272Z,99057.72
2022-10-13T00:24:35.913Z,99057.38
2022-10-13T00:27:02.486Z,99058.81
2022-10-13T00:29:29.119Z,99068.81
2022-10-13T00:31:55.706Z,99056.41
2022-10-13T00:34:22.310Z,99055.78
2022-10-13T00:36:48.921Z,99062.25
2022-10-13T00:39:15.544Z,99065.94
2022-10-13T00:41:44.198Z,99059.97
2022-10-13T00:44:41.407Z,99061.22
2022-10-13T00:47:08.604Z,99063.41
2022-10-13T00:49:38.572Z,99068.63
2022-10-13T00:52:05.185Z,99056.44
2022-10-13T00:54:31.896Z,99052.75
2022-10-13T00:56:58.542Z,99058.44
2022-10-13T00:59:29.201Z,99063.41
2022-10-13T01:01:59.396Z,99064.91
2022-10-13T01:04:33.965Z,99062.13
2022-10-13T01:07:01.581Z,99063.16
2022-10-13T01:09:35.085Z,99062.91
2022-10-13T01:12:20.593Z,99062.84
2022-10-13T01:14:56.462Z,99054.81
2022-10-13T01:17:36.432Z,99058.66
2022-10-13T01:20:19.390Z,99055.53
2022-10-13T01:22:56.799Z,99059.38
2022-10-13T01:25:53.805Z,99054.69
2022-10-13T01:28:51.017Z,99052.06
2022-10-13T01:31:28.640Z,99054.28
2022-10-13T01:34:02.662Z,99050.81
2022-10-13T01:36:51.116Z,99054.09
2022-10-13T01:39:38.239Z,99053.09
2022-10-13T01:42:13.279Z,99043.28
2022-10-13T01:44:46.885Z,99042.59
2022-10-13T01:47:16.097Z,99032.94
2022-10-13T01:49:43.685Z,99034.13
2022-10-13T01:52:16.909Z,99027.88
2022-10-13T01:54:48.394Z,99026.53
2022-10-13T01:57:32.531Z,99024.56
2022-10-13T02:00:02.136Z,99025.00
2022-10-13T02:02:35.084Z,99026.88
2022-10-13T02:05:09.185Z,99035.59
2022-10-13T02:07:40.575Z,99031.97
2022-10-13T02:10:20.346Z,99033.34
2022-10-13T02:12:55.917Z,99034.75
2022-10-13T02:15:29.027Z,99038.00
2022-10-13T02:17:56.168Z,99035.53
2022-10-13T02:20:23.046Z,99035.34
2022-10-13T02:22:57.480Z,99028.03
2022-10-13T02:25:25.133Z,99023.06
2022-10-13T02:27:53.056Z,99017.13
2022-10-13T02:30:23.088Z,99021.75
2022-10-13T02:32:49.752Z,99016.47
2022-10-13T02:35:19.629Z,99021.19
2022-10-13T02:37:46.324Z,99015.78
2022-10-13T02:40:13.560Z,99015.16
2022-10-13T02:42:40.311Z,99011.69
2022-10-13T02:45:07.555Z,99011.91
2022-10-13T02:47:34.278Z,99017.03
2022-10-13T02:50:00.896Z,99012.44
2022-10-13T02:52:27.480Z,99013.72
2022-10-13T02:54:54.169Z,99021.88
2022-10-13T02:57:20.754Z,99015.22
2022-10-13T02:59:47.336Z,99010.53
2022-10-13T03:02:14.262Z,99014.63
2022-10-13T03:04:40.869Z,99011.78
2022-10-13T03:07:07.575Z,99008.19
2022-10-13T03:09:35.271Z,99007.41
2022-10-13T03:12:02.209Z,99004.00
2022-10-13T03:14:28.859Z,99007.06
2022-10-13T03:16:55.461Z,99009.53
2022-10-13T03:19:22.210Z,99011.97
2022-10-13T03:21:48.827Z,99012.56
2022-10-13T03:24:15.648Z,99013.56
2022-10-13T03:26:42.346Z,99020.94
2022-10-13T03:29:14.361Z,99015.03
2022-10-13T03:31:41.717Z,99022.97
2022-10-13T03:34:09.569Z,99020.16
2022-10-13T03:36:36.211Z,99016.72
2022-10-13T03:39:02.896Z,99024.25
2022-10-13T03:41:29.522Z,99022.25
2022-10-13T03:43:56.186Z,99020.00
2022-10-13T03:46:26.519Z,99019.81
2022-10-13T03:48:53.181Z,99026.53
2022-10-13T03:51:21.823Z,99019.22
2022-10-13T03:53:49.723Z,99032.63
2022-10-13T03:56:20.638Z,99031.22
2022-10-13T03:58:47.516Z,99033.28
2022-10-13T04:01:14.487Z,99036.91
2022-10-13T04:03:41.179Z,99025.16
2022-10-13T04:06:07.946Z,99033.69
2022-10-13T04:08:34.685Z,99029.00
2022-10-13T04:11:04.762Z,99027.34
2022-10-13T04:13:32.324Z,99030.00
2022-10-13T04:16:06.594Z,99020.28
2022-10-13T04:18:33.358Z,99018.25
2022-10-13T04:21:00.293Z,99022.53
2022-10-13T04:23:27.044Z,99030.84
2022-10-13T04:25:53.716Z,99035.38
2022-10-13T04:28:20.396Z,99031.47
2022-10-13T04:30:49.623Z,99032.31
2022-10-13T04:33:16.788Z,99024.97
2022-10-13T04:35:43.504Z,99028.66
2022-10-13T04:38:10.134Z,99023.97
2022-10-13T04:40:36.954Z,99024.81
2022-10-13T04:43:03.730Z,99019.31
2022-10-13T04:45:30.480Z,99018.31
2022-10-13T04:47:57.106Z,99020.56
2022-10-13T04:50:26.996Z,99005.72
2022-10-13T04:52:53.661Z,99017.06
2022-10-13T04:55:20.381Z,99020.34
2022-10-13T04:57:46.989Z,99012.63
2022-10-13T05:00:14.068Z,99017.53
2022-10-13T05:02:40.687Z,99013.44
2022-10-13T05:05:10.923Z,99007.94
2022-10-13T05:07:37.593Z,99002.28
2022-10-13T05:10:05.094Z,99007.59
2022-10-13T05:12:31.854Z,99012.03
2022-10-13T05:14:59.000Z,99010.22
2022-10-13T05:17:25.600Z,99007.19
2022-10-13T05:19:52.724Z,99004.31
2022-10-13T05:22:19.758Z,99001.50
2022-10-13T05:24:46.626Z,99003.53
2022-10-13T05:27:13.914Z,99005.97
2022-10-13T05:29:40.970Z,99000.13
2022-10-13T05:32:09.583Z,99000.91
2022-10-13T05:34:36.410Z,98994.81
2022-10-13T05:37:03.167Z,99004.56
2022-10-13T05:39:29.788Z,99000.13
2022-10-13T05:41:56.440Z,99002.97
2022-10-13T05:44:24.333Z,98999.09
2022-10-13T05:46:50.937Z,99003.38
2022-10-13T05:49:17.557Z,99005.22
2022-10-13T05:51:48.919Z,99004.59
2022-10-13T05:54:21.599Z,99005.41
2022-10-13T05:56:54.272Z,99005.41
2022-10-13T05:59:26.931Z,99005.81
2022-10-13T06:01:55.109Z,99010.72
2022-10-13T06:04:30.219Z,99007.06
2022-10-13T06:06:57.137Z,99014.78
2022-10-13T06:09:23.790Z,99008.88
2022-10-13T06:11:50.400Z,99019.25
2022-10-13T06:14:17.139Z,99017.44
2022-10-13T06:16:43.749Z,99018.22
2022-10-13T06:19:10.389Z,99018.22
2022-10-13T06:21:37.067Z,99018.22
2022-10-13T06:24:03.969Z,99009.09
2022-10-13T06:26:30.606Z,99012.34
2022-10-13T06:28:59.722Z,99015.00
2022-10-13T06:31:27.105Z,99013.16
2022-10-13T06:33:54.023Z,99020.50
2022-10-13T06:36:20.700Z,99016.22
2022-10-13T06:38:47.392Z,99016.63
2022-10-13T06:41:14.423Z,99013.34
2022-10-13T06:43:41.531Z,99017.63
2022-10-13T06:46:08.551Z,99025.56
2022-10-13T06:48:35.513Z,99021.72
2022-10-13T06:51:04.615Z,99021.09
2022-10-13T06:53:31.702Z,99017.44
2022-10-13T06:55:59.830Z,99012.94
2022-10-13T06:58:26.966Z,99009.47
2022-10-13T07:00:54.427Z,99019.25
2022-10-13T07:03:21.945Z,99025.38
2022-10-13T07:05:48.612Z,99023.72
2022-10-13T07:08:15.845Z,99020.47
2022-10-13T07:10:42.747Z,99022.72
2022-10-13T07:13:09.425Z,99022.28
2022-10-13T07:15:39.576Z,99024.53
2022-10-13T07:18:06.754Z,99012.94
2022-10-13T07:20:33.998Z,99011.50
2022-10-13T07:23:00.837Z,99016.19
2022-10-13T07:25:27.686Z,99006.00
2022-10-13T07:27:54.397Z,99006.19
2022-10-13T07:30:22.050Z,99004.75
2022-10-13T07:32:49.371Z,99005.75
2022-10-13T07:35:16.416Z,99004.31
2022-10-13T07:37:43.051Z,99000.22
2022-10-13T07:40:10.325Z,98999.34
2022-10-13T07:42:37.087Z,98996.63
2022-10-13T07:45:04.194Z,98999.16
2022-10-13T07:47:31.099Z,98996.47
2022-10-13T07:49:57.797Z,99000.31
2022-10-13T07:52:24.458Z,99001.91
2022-10-13T07:54:51.421Z,98997.44
2022-10-13T07:57:18.463Z,98999.88
2022-10-13T07:59:45.230Z,98995.41
2022-10-13T08:02:11.815Z,98989.03
2022-10-13T08:04:39.120Z,99000.84
2022-10-13T08:07:06.732Z,98992.56
2022-10-13T08:09:36.488Z,98995.03
2022-10-13T08:12:03.653Z,98989.91
2022-10-13T08:14:31.352Z,98995.41
2022-10-13T08:16:58.260Z,98991.19
2022-10-13T08:19:26.596Z,98994.03
2022-10-13T08:21:58.141Z,98990.31
2022-10-13T08:24:26.815Z,98992.75
2022-10-13T08:26:53.448Z,98988.25
2022-10-13T08:29:21.791Z,98986.75
2022-10-13T08:34:22.670Z,98988.88
2022-10-13T08:36:52.997Z,98984.34
2022-10-13T08:39:20.875Z,98983.00
2022-10-13T08:41:47.925Z,98987.59
2022-10-13T08:47:30.199Z,98982.81
2022-10-13T08:50:01.060Z,98974.91
2022-10-13T08:52:47.830Z,98983.81
2022-10-13T08:55:29.711Z,98986.47
2022-10-13T08:57:56.518Z,98983.97
2022-10-13T09:00:23.168Z,98985.22
2022-10-13T09:02:50.780Z,98981.63
2022-10-13T09:05:39.556Z,98975.50
2022-10-13T09:08:17.049Z,98982.72
2022-10-13T09:10:49.408Z,98981.47
2022-10-13T09:13:16.059Z,98978.50
2022-10-13T09:15:45.058Z,98980.94
2022-10-13T09:18:13.798Z,98979.59
2022-10-13T09:20:41.152Z,98984.72
2022-10-13T09:23:17.698Z,98977.69
2022-10-13T09:25:48.423Z,98980.78
2022-10-13T09:28:20.622Z,98976.50
2022-10-13T09:30:47.788Z,98976.38
2022-10-13T09:33:20.024Z,98974.56
2022-10-13T09:36:03.266Z,98964.47
2022-10-13T09:38:30.028Z,98971.53
2022-10-13T09:41:04.774Z,98967.41
2022-10-13T09:43:37.226Z,98963.19
2022-10-13T09:46:18.999Z,98951.75
2022-10-13T09:48:49.636Z,98953.50
2022-10-13T09:51:40.182Z,98952.28
2022-10-13T09:54:26.019Z,98953.09
2022-10-13T09:56:59.552Z,98947.31
2022-10-13T09:59:36.883Z,98941.72
2022-10-13T10:02:28.433Z,98943.22
2022-10-13T10:05:00.012Z,98938.50
2022-10-13T10:07:31.790Z,98938.91
2022-10-13T10:10:06.483Z,98940.50
2022-10-13T10:12:37.330Z,98929.56
2022-10-13T10:15:17.207Z,98932.34
2022-10-13T10:17:52.860Z,98924.38
2022-10-13T10:20:50.648Z,98922.88
2022-10-13T10:23:43.388Z,98915.59
2022-10-13T10:26:23.172Z,98905.81
2022-10-13T10:29:06.884Z,98913.91
2022-10-13T10:31:54.158Z,98913.25
2022-10-13T10:34:34.995Z,98904.50
2022-10-13T10:37:25.124Z,98907.94
2022-10-13T10:40:04.887Z,98911.41
2022-10-13T10:43:02.126Z,98903.47
2022-10-13T10:45:31.600Z,98910.63
2022-10-13T10:48:02.875Z,98901.31
2022-10-13T10:50:32.021Z,98895.25
2022-10-13T10:53:03.146Z,98889.53
2022-10-13T10:55:47.932Z,98883.50
2022-10-13T10:58:29.857Z,98877.00
2022-10-13T11:01:02.649Z,98879.16
2022-10-13T11:03:54.769Z,98870.91
2022-10-13T11:06:28.325Z,98856.91
2022-10-13T11:08:55.404Z,98861.81
2022-10-13T11:11:26.584Z,98862.31
2022-10-13T11:14:21.604Z,98859.00
2022-10-13T11:17:10.834Z,98860.09
2022-10-13T11:19:39.247Z,98860.09
2022-10-13T11:22:05.870Z,98857.13
2022-10-13T11:24:33.482Z,98852.91
2022-10-13T11:27:15.357Z,98855.06
2022-10-13T11:29:55.895Z,98849.00
2022-10-13T11:32:42.522Z,98847.25
2022-10-13T11:35:10.140Z,98852.09
2022-10-13T11:38:09.278Z,98845.13
2022-10-13T11:40:57.144Z,98833.06
2022-10-13T11:43:40.186Z,98837.59
2022-10-13T11:46:19.894Z,98831.22
2022-10-13T11:49:02.948Z,98822.72
2022-10-13T11:51:44.937Z,98814.72
2022-10-13T11:54:34.187Z,98819.84
2022-10-13T11:57:00.987Z,98812.75
2022-10-13T11:59:31.117Z,98816.00
2022-10-13T12:02:00.365Z,98805.84
2022-10-13T12:04:28.292Z,98805.25
2022-10-13T12:06:59.465Z,98802.09
2022-10-13T12:09:27.481Z,98796.28
2022-10-13T12:12:02.450Z,98784.59
2022-10-13T12:14:35.512Z,98782.41
2022-10-13T12:17:02.534Z,98779.06
2022-10-13T12:19:32.225Z,98775.34
2022-10-13T12:22:01.448Z,98775.88
2022-10-13T12:24:30.356Z,98773.97
2022-10-13T12:26:58.521Z,98772.31
2022-10-13T12:29:29.438Z,98769.69
2022-10-13T12:31:58.591Z,98760.66
2022-10-13T12:34:29.170Z,98761.19
2022-10-13T12:37:01.169Z,98754.81
2022-10-13T12:39:31.287Z,98755.91
2022-10-13T12:41:58.505Z,98755.81
2022-10-13T12:44:28.441Z,98755.00
2022-10-13T12:46:59.086Z,98756.38
2022-10-13T12:49:28.528Z,98760.59
2022-10-13T12:52:14.806Z,98750.38
2022-10-13T12:54:52.378Z,98748.56
2022-10-13T12:57:35.337Z,98753.91
2022-10-13T13:00:04.528Z,98750.03
2022-10-13T13:02:32.672Z,98749.59
2022-10-13T13:04:59.451Z,98753.28
2022-10-13T13:07:31.373Z,98746.53
2022-10-13T13:10:01.059Z,98751.34
2022-10-13T13:12:29.454Z,98750.34
2022-10-13T13:14:57.341Z,98745.78
2022-10-13T13:20:29.587Z,98757.47
2022-10-13T13:22:56.246Z,98758.09
2022-10-13T13:25:23.770Z,98752.50
2022-10-13T13:27:50.908Z,98751.44
2022-10-13T13:30:20.618Z,98750.13
2022-10-13T13:32:47.432Z,98749.88
2022-10-13T13:35:14.216Z,98741.84
2022-10-13T13:37:44.571Z,98730.25
2022-10-13T13:40:17.298Z,98726.56
2022-10-13T13:42:44.004Z,98729.97
2022-10-13T13:45:15.319Z,98721.72
2022-10-13T13:47:42.424Z,98729.53
2022-10-13T13:50:24.460Z,98728.09
2022-10-13T13:52:51.325Z,98719.56
2022-10-13T13:55:18.588Z,98715.19
2022-10-13T13:57:45.819Z,98708.28
2022-10-13T14:00:14.320Z,98714.16
2022-10-13T14:02:42.802Z,98704.47
2022-10-13T14:05:11.152Z,98714.09
2022-10-13T14:07:38.555Z,98712.97
2022-10-13T14:10:07.217Z,98712.72
2022-10-13T14:12:34.269Z,98710.84
2022-10-13T14:15:01.042Z,98702.47
2022-10-13T14:17:28.680Z,98698.97
2022-10-13T14:19:55.521Z,98703.91
2022-10-13T14:22:23.047Z,98697.72
2022-10-13T14:24:50.149Z,98699.88
2022-10-13T14:27:16.809Z,98698.34
2022-10-13T14:29:43.558Z,98698.91
2022-10-13T14:32:10.152Z,98698.69
2022-10-13T14:34:36.804Z,98696.44
2022-10-13T14:37:03.470Z,98698.34
2022-10-13T14:39:30.177Z,98698.81
2022-10-13T14:41:56.866Z,98696.94
2022-10-13T14:44:23.541Z,98698.16
2022-10-13T14:46:50.183Z,98684.47
2022-10-13T14:49:16.816Z,98698.41
2022-10-13T14:51:43.823Z,98696.72
2022-10-13T14:54:10.810Z,98689.75
2022-10-13T14:56:37.490Z,98699.34
2022-10-13T14:59:06.040Z,98699.47
2022-10-13T15:01:33.600Z,98697.09
2022-10-13T15:04:01.642Z,98697.47
2022-10-13T15:06:28.928Z,98693.81
2022-10-13T15:08:55.627Z,98695.97
2022-10-13T15:11:22.715Z,98690.53
2022-10-13T15:13:49.381Z,98695.03
2022-10-13T15:16:18.755Z,98689.47
2022-10-13T15:18:46.040Z,98696.47
2022-10-13T15:21:13.191Z,98687.81
2022-10-13T15:23:40.022Z,98686.91
2022-10-13T15:26:07.066Z,98687.44
2022-10-13T15:28:37.758Z,98682.88
2022-10-13T15:31:04.981Z,98683.34
2022-10-13T15:33:32.253Z,98683.31
2022-10-13T15:35:59.663Z,98683.31
2022-10-13T15:38:26.796Z,98674.13
2022-10-13T15:40:58.455Z,98672.97
2022-10-13T15:43:25.101Z,98666.78
2022-10-13T15:45:59.643Z,98665.69
2022-10-13T15:48:27.320Z,98676.31
2022-10-13T15:50:54.028Z,98669.03
2022-10-13T15:53:20.673Z,98659.84
2022-10-13T15:55:48.267Z,98656.34
2022-10-13T15:58:15.399Z,98651.72
2022-10-13T16:00:43.016Z,98657.56
2022-10-13T16:03:15.198Z,98647.06
2022-10-13T16:05:42.905Z,98638.75
2022-10-13T16:08:09.605Z,98645.63
2022-10-13T16:10:39.760Z,98644.03
2022-10-13T16:13:06.541Z,98641.31
2022-10-13T16:15:33.461Z,98640.69
2022-10-13T16:18:00.089Z,98643.84
2022-10-13T16:20:34.108Z,98648.31
2022-10-13T16:23:01.424Z,98645.53
2022-10-13T16:25:29.419Z,98642.00
2022-10-13T16:27:56.599Z,98649.09
2022-10-13T16:30:23.205Z,98645.56
2022-10-13T16:32:49.930Z,98639.84
2022-10-13T16:35:16.564Z,98653.84
2022-10-13T16:37:43.182Z,98655.28
2022-10-13T16:40:10.297Z,98651.19
2022-10-13T16:42:36.961Z,98653.34
2022-10-13T16:45:03.895Z,98652.22
2022-10-13T16:47:30.543Z,98662.50
2022-10-13T16:49:57.279Z,98657.16
2022-10-13T16:52:23.934Z,98670.91
2022-10-13T16:54:53.760Z,98670.13
2022-10-13T16:57:20.739Z,98669.06
2022-10-13T16:59:47.624Z,98667.47
2022-10-13T17:02:15.262Z,98657.53
2022-10-13T17:04:42.549Z,98658.16
2022-10-13T17:07:09.222Z,98659.44
2022-10-13T17:09:41.381Z,98655.09
2022-10-13T17:12:08.044Z,98658.47
2022-10-13T17:14:34.700Z,98657.66
2022-10-13T17:17:01.413Z,98659.19
2022-10-13T17:19:28.098Z,98657.47
2022-10-13T17:22:04.463Z,98657.28
2022-10-13T17:24:31.302Z,98657.53
2022-10-13T17:26:57.970Z,98654.06
2022-10-13T17:29:24.733Z,98665.56
2022-10-13T17:31:51.346Z,98668.13
2022-10-13T17:34:17.935Z,98677.84
2022-10-13T17:36:44.596Z,98674.72
2022-10-13T17:39:11.456Z,98677.41
2022-10-13T17:41:38.132Z,98677.31
2022-10-13T17:44:04.788Z,98676.06
2022-10-13T17:46:37.515Z,98675.13
2022-10-13T17:49:06.248Z,98673.09
2022-10-13T17:51:33.049Z,98678.19
2022-10-13T17:54:00.755Z,98671.47
2022-10-13T17:56:28.544Z,98675.53
2022-10-13T17:58:55.205Z,98673.91
2022-10-13T18:01:25.697Z,98678.19
2022-10-13T18:03:55.929Z,98677.81
2022-10-13T18:06:23.059Z,98671.81
2022-10-13T18:08:51.025Z,98669.97
2022-10-13T18:11:21.275Z,98666.75
2022-10-13T18:13:48.333Z,98671.81
2022-10-13T18:16:18.230Z,98668.66
2022-10-13T18:18:46.610Z,98672.50
2022-10-13T18:21:16.459Z,98678.50
2022-10-13T18:23:43.617Z,98683.34
2022-10-13T18:26:13.684Z,98684.63
2022-10-13T18:28:43.371Z,98688.34
2022-10-13T18:31:13.042Z,98687.41
2022-10-13T18:33:40.550Z,98689.94
2022-10-13T18:36:24.268Z,98688.56
2022-10-13T18:38:52.066Z,98689.59
2022-10-13T18:41:20.926Z,98684.94
2022-10-13T18:43:47.571Z,98686.56
2022-10-13T18:46:14.341Z,98681.47
2022-10-13T18:48:41.276Z,98682.03
2022-10-13T18:51:12.312Z,98681.13
2022-10-13T18:53:41.679Z,98678.81
2022-10-13T18:56:11.830Z,98674.53
2022-10-13T18:58:38.907Z,98672.91
2022-10-13T19:01:09.098Z,98674.28
2022-10-13T19:03:38.314Z,98677.44
2022-10-13T19:06:07.684Z,98678.47
2022-10-13T19:08:34.928Z,98675.56
2022-10-13T19:11:01.913Z,98678.03
2022-10-13T19:13:28.944Z,98676.41
2022-10-13T19:16:04.634Z,98678.94
2022-10-13T19:18:31.513Z,98678.47
2022-10-13T19:20:58.135Z,98675.81
2022-10-13T19:23:24.863Z,98681.91
2022-10-13T19:25:51.760Z,98682.44
2022-10-13T19:28:18.769Z,98679.56
2022-10-13T19:30:45.811Z,98683.47
2022-10-13T19:33:14.340Z,98676.34
2022-10-13T19:35:42.675Z,98679.13
2022-10-13T19:38:10.078Z,98671.72
2022-10-13T19:40:42.151Z,98670.94
2022-10-13T19:43:10.105Z,98673.09
2022-10-13T19:45:36.816Z,98677.84
2022-10-13T19:48:03.557Z,98672.66
2022-10-13T19:50:33.771Z,98673.69
2022-10-13T19:53:00.493Z,98670.22
2022-10-13T19:55:27.170Z,98678.16
2022-10-13T19:57:53.823Z,98674.13
2022-10-13T20:00:20.460Z,98676.88
2022-10-13T20:02:47.112Z,98673.94
2022-10-13T20:05:13.767Z,98662.34
2022-10-13T20:07:40.411Z,98670.88
2022-10-13T20:10:07.244Z,98664.63
2022-10-13T20:12:33.910Z,98674.53
2022-10-13T20:15:01.034Z,98681.84
2022-10-13T20:17:27.860Z,98682.56
2022-10-13T20:19:54.508Z,98680.13
2022-10-13T20:22:21.204Z,98670.50
2022-10-13T20:24:47.829Z,98665.66
2022-10-13T20:27:16.908Z,98671.56
2022-10-13T20:29:43.579Z,98667.28
2022-10-13T20:32:10.266Z,98673.91
2022-10-13T20:34:36.955Z,98668.06
2022-10-13T20:37:03.598Z,98673.75
2022-10-13T20:39:30.205Z,98670.88
2022-10-13T20:41:56.842Z,98674.41
2022-10-13T20:44:23.517Z,98678.69
2022-10-13T20:46:50.177Z,98683.50
2022-10-13T20:49:16.908Z,98673.91
2022-10-13T20:51:44.094Z,98675.88
2022-10-13T20:54:13.142Z,98670.56
2022-10-13T20:56:43.223Z,98674.06
2022-10-13T20:59:12.289Z,98660.88
2022-10-13T21:01:39.117Z,98661.81
2022-10-13T21:04:07.257Z,98664.84
2022-10-13T21:06:35.707Z,98665.41
2022-10-13T21:09:04.592Z,98663.31
2022-10-13T21:11:34.621Z,98661.31
2022-10-13T21:14:06.796Z,98672.16
2022-10-13T21:16:34.289Z,98664.63
2022-10-13T21:19:01.603Z,98660.97
2022-10-13T21:21:31.312Z,98650.63
2022-10-13T21:24:00.877Z,98642.16
2022-10-13T21:26:30.533Z,98632.16
2022-10-13T21:28:58.159Z,98631.50
2022-10-13T21:31:26.994Z,98635.56
2022-10-13T21:33:54.706Z,98628.25
2022-10-13T21:36:25.093Z,98641.75
2022-10-13T21:38:54.936Z,98645.22
2022-10-13T21:41:21.955Z,98645.84
2022-10-13T21:43:50.093Z,98642.38
2022-10-13T21:46:19.722Z,98649.16
2022-10-13T21:48:47.861Z,98638.84
2022-10-13T21:51:18.757Z,98645.53
2022-10-13T21:53:51.777Z,98637.88
2022-10-13T21:56:19.324Z,98632.75
2022-10-13T21:58:47.346Z,98635.75
2022-10-13T22:01:14.059Z,98642.00
2022-10-13T22:03:41.716Z,98635.22
2022-10-13T22:06:18.248Z,98641.34
2022-10-13T22:08:46.937Z,98644.88
2022-10-13T22:11:14.021Z,98646.06
2022-10-13T22:13:40.878Z,98648.03
2022-10-13T22:16:11.224Z,98649.91
2022-10-13T22:18:37.857Z,98656.50
2022-10-13T22:21:07.659Z,98649.66
2022-10-13T22:23:34.425Z,98657.44
2022-10-13T22:26:01.041Z,98652.16
2022-10-13T22:28:29.021Z,98652.38
2022-10-13T22:30:57.883Z,98651.28
2022-10-13T22:33:24.532Z,98652.00
2022-10-13T22:35:51.173Z,98653.19
2022-10-13T22:38:17.792Z,98657.25
2022-10-13T22:40:44.386Z,98655.84
2022-10-13T22:43:10.979Z,98648.56
2022-10-13T22:45:37.600Z,98656.34
2022-10-13T22:48:04.488Z,98655.97
2022-10-13T22:50:31.098Z,98659.31
2022-10-13T22:52:57.728Z,98656.66
2022-10-13T22:55:24.339Z,98653.84
2022-10-13T22:57:51.038Z,98646.69
2022-10-13T23:00:17.973Z,98651.13
2022-10-13T23:02:44.636Z,98646.22
2022-10-13T23:05:11.251Z,98649.44
2022-10-13T23:07:37.862Z,98656.13
2022-10-13T23:10:04.768Z,98644.13
2022-10-13T23:12:31.372Z,98637.25
2022-10-13T23:14:58.067Z,98636.25
2022-10-13T23:17:24.917Z,98632.03
2022-10-13T23:19:51.606Z,98624.53
2022-10-13T23:22:18.210Z,98633.44
2022-10-13T23:24:44.860Z,98631.84
2022-10-13T23:27:11.481Z,98634.63
2022-10-13T23:29:38.086Z,98644.66
2022-10-13T23:32:09.774Z,98642.00
2022-10-13T23:34:36.668Z,98639.50
2022-10-13T23:37:03.320Z,98639.50
2022-10-13T23:39:29.938Z,98632.03
2022-10-13T23:41:56.539Z,98625.78
2022-10-13T23:44:23.316Z,98627.66
2022-10-13T23:46:49.966Z,98631.25
2022-10-13T23:49:16.613Z,98628.75
2022-10-13T23:51:44.257Z,98625.31
2022-10-13T23:54:11.207Z,98622.66
2022-10-13T23:56:38.562Z,98626.97
2022-10-13T23:59:05.920Z,98623.97
